createdAt,value
2023-05-13T00:00:09.964Z,12.60
2023-05-13T00:02:37.836Z,11.77
2023-05-13T00:05:06.026Z,12.13
2023-05-13T00:07:33.191Z,12.20
2023-05-13T00:10:00.652Z,12.47
2023-05-13T00:12:27.932Z,11.40
2023-05-13T00:14:55.740Z,11.30
2023-05-13T00:17:22.932Z,12.23
2023-05-13T00:19:50.677Z,12.60
2023-05-13T00:22:18.361Z,12.53
2023-05-13T00:24:45.965Z,11.53
2023-05-13T00:27:13.989Z,11.57
2023-05-13T00:29:41.193Z,12.03
2023-05-13T00:32:08.999Z,12.50
2023-05-13T00:34:36.168Z,14.00
2023-05-13T00:37:03.372Z,12.60
2023-05-13T00:39:30.692Z,12.60
2023-05-13T00:41:59.143Z,14.20
2023-05-13T00:44:27.793Z,11.77
2023-05-13T00:46:54.992Z,12.17
2023-05-13T00:49:22.413Z,13.30
2023-05-13T00:51:52.728Z,13.20
2023-05-13T00:54:21.901Z,15.17
2023-05-13T00:56:49.174Z,12.93
2023-05-13T00:59:16.492Z,11.97
2023-05-13T01:01:51.174Z,15.40
2023-05-13T01:04:34.044Z,13.20
2023-05-13T01:07:29.224Z,12.77
2023-05-13T01:10:33.530Z,13.83
2023-05-13T01:13:06.115Z,12.97
2023-05-13T01:15:38.591Z,14.23
2023-05-13T01:18:11.704Z,14.30
2023-05-13T01:20:42.423Z,13.97
2023-05-13T01:23:12.755Z,14.30
2023-05-13T01:25:40.801Z,13.70
2023-05-13T01:28:09.293Z,13.83
2023-05-13T01:30:39.497Z,12.90
2023-05-13T01:33:07.269Z,14.57
2023-05-13T01:35:35.414Z,13.33
2023-05-13T01:38:04.403Z,13.80
2023-05-13T01:40:35.049Z,14.23
2023-05-13T01:43:05.769Z,14.33
2023-05-13T01:45:35.714Z,14.50
2023-05-13T01:48:03.885Z,14.37
2023-05-13T01:50:41.116Z,13.77
2023-05-13T01:53:09.197Z,13.40
2023-05-13T01:55:38.388Z,13.63
2023-05-13T01:58:06.490Z,13.83
2023-05-13T02:00:33.787Z,13.67
2023-05-13T02:03:04.878Z,13.47
2023-05-13T02:05:33.151Z,13.67
2023-05-13T02:08:06.414Z,20.37
2023-05-13T02:10:34.095Z,14.53
2023-05-13T02:13:02.080Z,13.50
2023-05-13T02:15:29.347Z,13.10
2023-05-13T02:17:56.930Z,16.13
2023-05-13T02:20:26.166Z,17.33
2023-05-13T02:22:53.323Z,15.30
2023-05-13T02:25:20.623Z,14.33
2023-05-13T02:27:47.813Z,13.20
2023-05-13T02:30:15.922Z,13.77
2023-05-13T02:32:44.570Z,14.57
2023-05-13T02:35:12.031Z,16.43
2023-05-13T02:37:39.484Z,15.60
2023-05-13T02:40:07.632Z,14.70
2023-05-13T02:42:34.980Z,14.13
2023-05-13T02:45:02.703Z,14.97
2023-05-13T02:47:33.219Z,14.77
2023-05-13T02:50:06.121Z,15.47
2023-05-13T02:52:35.771Z,15.00
2023-05-13T02:55:03.554Z,14.53
2023-05-13T02:57:30.923Z,14.03
2023-05-13T02:59:59.116Z,14.13
2023-05-13T03:02:27.968Z,15.60
2023-05-13T03:04:56.893Z,16.10
2023-05-13T03:07:24.829Z,14.77
2023-05-13T03:09:52.077Z,15.00
2023-05-13T03:12:19.874Z,16.90
2023-05-13T03:14:48.533Z,16.20
2023-05-13T03:17:15.923Z,15.03
2023-05-13T03:19:43.178Z,14.83
2023-05-13T03:22:10.583Z,17.00
2023-05-13T03:24:37.767Z,14.27
2023-05-13T03:27:05.205Z,15.97
2023-05-13T03:29:33.080Z,14.83
2023-05-13T03:32:01.194Z,14.37
2023-05-13T03:34:28.513Z,16.00
2023-05-13T03:36:55.741Z,15.13
2023-05-13T03:39:23.278Z,15.47
2023-05-13T03:41:50.708Z,14.70
2023-05-13T03:44:18.796Z,14.63
2023-05-13T03:46:47.179Z,14.20
2023-05-13T03:49:15.797Z,15.37
2023-05-13T03:51:42.981Z,15.90
2023-05-13T03:54:11.159Z,16.33
2023-05-13T03:56:40.307Z,15.63
2023-05-13T03:59:07.519Z,14.63
2023-05-13T04:01:36.626Z,15.27
2023-05-13T04:04:03.953Z,14.03
2023-05-13T04:06:32.352Z,13.13
2023-05-13T04:09:01.109Z,15.10
2023-05-13T04:11:28.336Z,15.87
2023-05-13T04:13:55.701Z,14.63
2023-05-13T04:16:23.144Z,16.10
2023-05-13T04:18:50.505Z,16.03
2023-05-13T04:21:17.769Z,15.93
2023-05-13T04:23:44.927Z,16.10
2023-05-13T04:26:12.330Z,15.87
2023-05-13T04:28:39.684Z,16.17
2023-05-13T04:31:06.888Z,18.07
2023-05-13T04:33:36.567Z,15.13
2023-05-13T04:36:04.006Z,14.93
2023-05-13T04:38:31.493Z,17.03
2023-05-13T04:40:59.262Z,17.40
2023-05-13T04:43:34.790Z,16.20
2023-05-13T04:46:03.038Z,17.70
2023-05-13T04:48:30.336Z,15.83
2023-05-13T04:50:58.779Z,16.43
2023-05-13T04:53:26.657Z,16.17
2023-05-13T04:56:01.205Z,15.73
2023-05-13T04:58:30.805Z,19.33
2023-05-13T05:00:57.999Z,17.50
2023-05-13T05:03:25.492Z,16.13
2023-05-13T05:05:53.305Z,18.23
2023-05-13T05:08:21.282Z,22.83
2023-05-13T05:10:51.038Z,17.33
2023-05-13T05:13:19.030Z,17.40
2023-05-13T05:15:46.328Z,17.57
2023-05-13T05:18:14.849Z,15.57
2023-05-13T05:20:45.421Z,17.90
2023-05-13T05:23:17.867Z,17.43
2023-05-13T05:25:45.581Z,18.13
2023-05-13T05:28:13.829Z,19.43
2023-05-13T05:30:43.284Z,17.40
2023-05-13T05:33:17.124Z,17.70
2023-05-13T05:35:45.097Z,16.90
2023-05-13T05:38:16.075Z,18.93
2023-05-13T05:40:46.067Z,17.90
2023-05-13T05:43:13.700Z,17.60
2023-05-13T05:45:42.565Z,18.20
2023-05-13T05:48:13.368Z,21.10
2023-05-13T05:50:41.535Z,21.20
2023-05-13T05:53:11.283Z,17.60
2023-05-13T05:55:40.553Z,19.53
2023-05-13T05:58:09.955Z,17.07
2023-05-13T06:00:38.500Z,19.80
2023-05-13T06:03:05.912Z,19.97
2023-05-13T06:05:33.656Z,18.00
2023-05-13T06:08:00.911Z,16.63
2023-05-13T06:10:29.947Z,19.07
2023-05-13T06:12:58.459Z,19.13
2023-05-13T06:15:25.806Z,18.27
2023-05-13T06:17:53.004Z,19.23
2023-05-13T06:20:20.407Z,18.47
2023-05-13T06:22:48.243Z,19.60
2023-05-13T06:25:15.682Z,19.80
2023-05-13T06:27:43.432Z,20.83
2023-05-13T06:30:11.774Z,16.43
2023-05-13T06:32:50.261Z,18.00
2023-05-13T06:35:25.372Z,14.43
2023-05-13T06:37:52.681Z,13.60
2023-05-13T06:40:20.580Z,14.30
2023-05-13T06:42:47.938Z,15.07
2023-05-13T06:45:23.638Z,13.87
2023-05-13T06:47:52.079Z,11.40
2023-05-13T06:50:20.358Z,10.17
2023-05-13T06:52:48.290Z,9.90
2023-05-13T06:55:16.631Z,9.40
2023-05-13T06:57:46.661Z,9.87
2023-05-13T07:00:15.240Z,10.23
2023-05-13T07:02:42.703Z,9.10
2023-05-13T07:05:11.777Z,9.40
2023-05-13T07:07:39.095Z,7.70
2023-05-13T07:10:06.460Z,7.80
2023-05-13T07:12:33.712Z,6.97
2023-05-13T07:15:01.407Z,7.23
2023-05-13T07:17:28.701Z,7.23
2023-05-13T07:19:56.847Z,6.73
2023-05-13T07:22:24.402Z,6.67
2023-05-13T07:24:51.608Z,8.73
2023-05-13T07:27:18.833Z,6.63
2023-05-13T07:29:46.492Z,5.80
2023-05-13T07:32:14.290Z,7.17
2023-05-13T07:34:42.098Z,7.00
2023-05-13T07:37:09.342Z,6.37
2023-05-13T07:39:36.951Z,7.97
2023-05-13T07:42:04.246Z,8.53
2023-05-13T07:44:31.446Z,6.93
2023-05-13T07:46:58.657Z,6.97
2023-05-13T07:49:26.043Z,5.70
2023-05-13T07:51:53.200Z,7.10
2023-05-13T07:54:20.821Z,5.37
2023-05-13T07:56:48.043Z,7.10
2023-05-13T07:59:15.247Z,7.70
2023-05-13T08:01:42.957Z,5.50
2023-05-13T08:04:10.356Z,6.90
2023-05-13T08:06:37.952Z,8.20
2023-05-13T08:09:06.356Z,6.70
2023-05-13T08:11:33.508Z,7.30
2023-05-13T08:14:01.257Z,4.77
2023-05-13T08:16:28.480Z,4.90
2023-05-13T08:18:56.359Z,4.40
2023-05-13T08:21:24.193Z,6.43
2023-05-13T08:23:52.098Z,5.33
2023-05-13T08:26:19.423Z,5.40
2023-05-13T08:28:46.725Z,6.17
2023-05-13T08:31:14.083Z,4.23
2023-05-13T08:33:42.517Z,4.07
2023-05-13T08:36:10.487Z,4.80
2023-05-13T08:38:37.728Z,3.13
2023-05-13T08:41:06.313Z,5.63
2023-05-13T08:43:34.496Z,4.07
2023-05-13T08:46:03.975Z,5.93
2023-05-13T08:48:32.262Z,3.10
2023-05-13T08:51:01.940Z,4.40
2023-05-13T08:53:29.533Z,5.57
2023-05-13T08:55:57.297Z,3.60
2023-05-13T08:58:25.240Z,4.90
2023-05-13T09:00:53.896Z,5.13
2023-05-13T09:03:21.519Z,6.10
2023-05-13T09:05:48.727Z,3.20
2023-05-13T09:08:15.924Z,4.53
2023-05-13T09:10:43.257Z,4.20
2023-05-13T09:13:14.319Z,3.73
2023-05-13T09:15:43.793Z,4.10
2023-05-13T09:18:11.259Z,3.40
2023-05-13T09:20:38.566Z,3.30
2023-05-13T09:23:12.052Z,3.00
2023-05-13T09:25:40.230Z,4.70
2023-05-13T09:28:08.786Z,6.43
2023-05-13T09:30:40.106Z,3.90
2023-05-13T09:33:13.472Z,5.10
2023-05-13T09:35:52.810Z,6.43
2023-05-13T09:38:21.970Z,5.20
2023-05-13T09:40:54.149Z,5.73
2023-05-13T09:43:23.060Z,3.67
2023-05-13T09:46:00.667Z,3.07
2023-05-13T09:48:30.199Z,5.53
2023-05-13T09:50:58.123Z,3.67
2023-05-13T09:53:26.788Z,3.10
2023-05-13T09:55:56.456Z,3.57
2023-05-13T09:58:25.442Z,6.23
2023-05-13T10:00:52.833Z,6.03
2023-05-13T10:03:20.540Z,5.13
2023-05-13T10:05:48.972Z,4.17
2023-05-13T10:08:18.097Z,4.90
2023-05-13T10:10:47.319Z,3.10
2023-05-13T10:13:17.985Z,4.63
2023-05-13T10:15:55.477Z,2.87
2023-05-13T10:18:24.153Z,4.23
2023-05-13T10:20:54.910Z,3.43
2023-05-13T10:23:23.972Z,4.60
2023-05-13T10:25:52.902Z,2.93
2023-05-13T10:28:20.655Z,3.07
2023-05-13T10:30:51.049Z,3.30
2023-05-13T10:33:18.582Z,3.43
2023-05-13T10:36:00.533Z,2.70
2023-05-13T10:39:06.000Z,3.40
2023-05-13T10:41:58.039Z,3.30
2023-05-13T10:44:25.248Z,3.03
2023-05-13T10:46:55.815Z,2.73
2023-05-13T10:49:24.676Z,3.53
2023-05-13T10:51:52.710Z,4.27
2023-05-13T10:54:21.817Z,2.93
2023-05-13T10:57:02.245Z,4.60
2023-05-13T10:59:30.812Z,3.70
2023-05-13T11:02:02.087Z,3.60
2023-05-13T11:04:29.587Z,5.10
2023-05-13T11:07:15.224Z,4.53
2023-05-13T11:09:50.806Z,4.10
2023-05-13T11:12:17.964Z,3.60
2023-05-13T11:14:45.677Z,2.97
2023-05-13T11:17:13.010Z,3.43
2023-05-13T11:19:48.394Z,2.80
2023-05-13T11:22:19.880Z,2.70
2023-05-13T11:25:06.643Z,5.03
2023-05-13T11:27:39.223Z,2.70
2023-05-13T11:30:28.052Z,4.83
2023-05-13T11:32:57.097Z,4.43
2023-05-13T11:35:29.137Z,3.53
2023-05-13T11:37:59.805Z,2.60
2023-05-13T11:40:28.580Z,2.97
2023-05-13T11:42:56.219Z,3.00
2023-05-13T11:45:25.122Z,2.40
2023-05-13T11:47:53.734Z,6.03
2023-05-13T11:50:30.250Z,3.33
2023-05-13T11:52:59.068Z,3.23
2023-05-13T11:55:31.008Z,3.23
2023-05-13T11:57:59.210Z,3.83
2023-05-13T12:00:33.848Z,3.60
2023-05-13T12:03:11.709Z,3.10
2023-05-13T12:05:39.722Z,4.30
2023-05-13T12:08:10.163Z,2.57
2023-05-13T12:10:43.608Z,2.97
2023-05-13T12:13:11.215Z,3.97
2023-05-13T12:15:38.691Z,2.30
2023-05-13T12:18:07.401Z,2.80
2023-05-13T12:20:34.840Z,3.83
2023-05-13T12:23:02.167Z,3.60
2023-05-13T12:25:39.801Z,4.63
2023-05-13T12:28:16.805Z,2.87
2023-05-13T12:31:05.483Z,4.40
2023-05-13T12:33:34.974Z,2.70
2023-05-13T12:36:38.144Z,4.00
2023-05-13T12:39:06.385Z,5.60
2023-05-13T12:41:35.671Z,2.50
2023-05-13T12:44:05.354Z,8.33
2023-05-13T12:46:32.806Z,2.53
2023-05-13T12:49:02.076Z,3.50
2023-05-13T12:51:29.772Z,3.03
2023-05-13T12:53:58.193Z,4.60
2023-05-13T12:56:26.201Z,2.70
2023-05-13T12:58:54.494Z,4.93
2023-05-13T13:01:22.879Z,2.37
2023-05-13T13:03:50.344Z,2.83
2023-05-13T13:06:17.774Z,2.20
2023-05-13T13:08:45.592Z,4.60
2023-05-13T13:11:18.649Z,4.10
2023-05-13T13:13:46.576Z,5.00
2023-05-13T13:16:14.591Z,3.77
2023-05-13T13:18:42.733Z,2.83
2023-05-13T13:21:10.689Z,2.57
2023-05-13T13:23:38.054Z,3.03
2023-05-13T13:26:05.580Z,3.00
2023-05-13T13:28:32.764Z,6.33
2023-05-13T13:31:00.276Z,3.10
2023-05-13T13:33:27.556Z,3.30
2023-05-13T13:35:55.152Z,3.13
2023-05-13T13:38:22.395Z,3.27
2023-05-13T13:40:50.644Z,3.53
2023-05-13T13:43:19.424Z,3.40
2023-05-13T13:45:46.861Z,4.47
2023-05-13T13:48:15.436Z,2.30
2023-05-13T13:50:44.402Z,5.53
2023-05-13T13:53:13.674Z,2.83
2023-05-13T13:55:40.879Z,3.77
2023-05-13T13:58:08.172Z,3.63
2023-05-13T14:00:36.178Z,2.87
2023-05-13T14:03:04.755Z,2.33
2023-05-13T14:05:32.941Z,5.17
2023-05-13T14:08:00.723Z,3.80
2023-05-13T14:10:28.039Z,3.20
2023-05-13T14:12:55.366Z,5.27
2023-05-13T14:15:24.178Z,3.60
2023-05-13T14:17:52.035Z,2.70
2023-05-13T14:20:21.900Z,2.73
2023-05-13T14:22:49.851Z,2.87
2023-05-13T14:25:17.484Z,3.47
2023-05-13T14:27:45.558Z,2.90
2023-05-13T14:30:12.941Z,2.10
2023-05-13T14:32:44.834Z,2.30
2023-05-13T14:35:12.819Z,7.03
2023-05-13T14:37:41.192Z,3.60
2023-05-13T14:40:09.562Z,3.63
2023-05-13T14:42:37.417Z,5.00
2023-05-13T14:45:05.869Z,7.10
2023-05-13T14:47:33.688Z,4.23
2023-05-13T14:50:01.034Z,8.27
2023-05-13T14:52:28.402Z,4.57
2023-05-13T14:54:56.578Z,3.23
2023-05-13T14:57:24.473Z,3.13
2023-05-13T14:59:51.687Z,2.83
2023-05-13T15:02:18.989Z,6.13
2023-05-13T15:04:46.307Z,3.57
2023-05-13T15:07:13.652Z,2.50
2023-05-13T15:09:41.007Z,3.83
2023-05-13T15:12:08.986Z,2.60
2023-05-13T15:14:36.190Z,3.20
2023-05-13T15:17:05.765Z,3.47
2023-05-13T15:19:33.277Z,2.63
2023-05-13T15:22:01.193Z,2.77
2023-05-13T15:24:28.879Z,4.20
2023-05-13T15:26:56.193Z,4.47
2023-05-13T15:29:23.540Z,4.83
2023-05-13T15:31:51.047Z,2.80
2023-05-13T15:34:18.558Z,2.40
2023-05-13T15:36:46.288Z,3.07
2023-05-13T15:39:13.493Z,4.90
2023-05-13T15:41:40.650Z,5.23
2023-05-13T15:44:07.935Z,3.17
2023-05-13T15:46:35.425Z,2.47
2023-05-13T15:49:03.001Z,2.27
2023-05-13T15:51:31.588Z,3.27
2023-05-13T15:54:00.004Z,3.10
2023-05-13T15:56:27.350Z,3.70
2023-05-13T15:58:55.717Z,2.73
2023-05-13T16:01:22.956Z,3.60
2023-05-13T16:03:50.641Z,4.10
2023-05-13T16:06:17.860Z,2.70
2023-05-13T16:08:45.530Z,3.13
2023-05-13T16:11:13.104Z,3.37
2023-05-13T16:13:40.432Z,2.67
2023-05-13T16:16:08.012Z,4.60
2023-05-13T16:18:35.461Z,2.23
2023-05-13T16:21:03.194Z,3.37
2023-05-13T16:23:30.407Z,2.93
2023-05-13T16:25:57.619Z,3.47
2023-05-13T16:28:25.078Z,4.20
2023-05-13T16:30:56.267Z,3.73
2023-05-13T16:33:25.497Z,4.70
2023-05-13T16:35:52.906Z,2.87
2023-05-13T16:38:20.308Z,2.93
2023-05-13T16:40:47.852Z,2.40
2023-05-13T16:43:15.132Z,3.37
2023-05-13T16:45:43.748Z,3.10
2023-05-13T16:48:11.945Z,2.47
2023-05-13T16:50:39.579Z,2.53
2023-05-13T16:53:06.857Z,5.03
2023-05-13T16:55:34.980Z,2.37
2023-05-13T16:58:02.319Z,2.87
2023-05-13T17:00:30.665Z,4.10
2023-05-13T17:02:58.315Z,3.70
2023-05-13T17:05:26.131Z,4.40
2023-05-13T17:07:53.690Z,4.80
2023-05-13T17:10:21.302Z,2.90
2023-05-13T17:12:49.004Z,3.70
2023-05-13T17:15:16.428Z,5.03
2023-05-13T17:17:43.812Z,4.83
2023-05-13T17:20:11.658Z,2.60
2023-05-13T17:22:39.079Z,5.50
2023-05-13T17:25:07.010Z,3.80
2023-05-13T17:27:34.362Z,3.10
2023-05-13T17:30:01.769Z,3.30
2023-05-13T17:32:29.238Z,3.13
2023-05-13T17:34:56.574Z,3.10
2023-05-13T17:37:24.520Z,3.33
2023-05-13T17:39:51.856Z,2.87
2023-05-13T17:42:19.283Z,2.80
2023-05-13T17:44:47.454Z,6.10
2023-05-13T17:47:14.794Z,4.10
2023-05-13T17:49:42.682Z,3.43
2023-05-13T17:52:10.675Z,5.83
2023-05-13T17:54:38.102Z,4.90
2023-05-13T17:57:05.979Z,2.53
2023-05-13T17:59:33.840Z,2.63
2023-05-13T18:02:01.428Z,3.77
2023-05-13T18:04:28.845Z,4.20
2023-05-13T18:06:56.202Z,8.83
2023-05-13T18:09:24.009Z,2.87
2023-05-13T18:11:51.629Z,4.07
2023-05-13T18:14:19.011Z,2.60
2023-05-13T18:16:46.498Z,8.73
2023-05-13T18:19:13.940Z,3.80
2023-05-13T18:21:41.291Z,6.80
2023-05-13T18:24:08.759Z,12.80
2023-05-13T18:26:36.071Z,8.67
2023-05-13T18:29:03.965Z,9.03
2023-05-13T18:31:34.670Z,7.07
2023-05-13T18:34:03.425Z,7.60
2023-05-13T18:36:31.085Z,8.90
2023-05-13T18:38:58.699Z,5.63
2023-05-13T18:41:26.289Z,12.70
2023-05-13T18:43:54.346Z,7.53
2023-05-13T18:46:21.736Z,5.10
2023-05-13T18:48:49.217Z,6.00
2023-05-13T18:51:17.285Z,6.77
2023-05-13T18:53:45.644Z,3.90
2023-05-13T18:56:13.198Z,8.83
2023-05-13T18:58:40.930Z,14.17
2023-05-13T19:01:08.777Z,5.80
2023-05-13T19:03:36.244Z,4.60
2023-05-13T19:06:04.311Z,5.50
2023-05-13T19:08:32.098Z,4.73
2023-05-13T19:11:01.144Z,6.00
2023-05-13T19:13:36.233Z,5.47
2023-05-13T19:16:14.270Z,4.23
2023-05-13T19:18:41.861Z,3.00
2023-05-13T19:21:09.193Z,3.63
2023-05-13T19:23:37.768Z,2.87
2023-05-13T19:26:05.290Z,5.67
2023-05-13T19:28:33.666Z,5.00
2023-05-13T19:31:01.575Z,5.40
2023-05-13T19:33:29.035Z,4.23
2023-05-13T19:35:56.810Z,3.20
2023-05-13T19:38:24.237Z,6.03
2023-05-13T19:40:52.969Z,3.53
2023-05-13T19:43:20.886Z,4.37
2023-05-13T19:45:48.257Z,4.40
2023-05-13T19:48:15.709Z,4.23
2023-05-13T19:50:43.134Z,5.03
2023-05-13T19:53:11.234Z,3.83
2023-05-13T19:55:39.173Z,4.00
2023-05-13T19:58:06.537Z,3.83
2023-05-13T20:00:34.152Z,3.03
2023-05-13T20:03:01.684Z,4.90
2023-05-13T20:05:29.191Z,3.20
2023-05-13T20:07:56.924Z,3.70
2023-05-13T20:10:24.627Z,5.23
2023-05-13T20:12:52.182Z,4.30
2023-05-13T20:15:19.904Z,4.07
2023-05-13T20:17:47.326Z,2.77
2023-05-13T20:20:14.784Z,6.40
2023-05-13T20:22:42.073Z,4.63
2023-05-13T20:25:09.841Z,3.53
2023-05-13T20:27:37.141Z,4.40
2023-05-13T20:30:04.919Z,4.00
2023-05-13T20:32:32.815Z,4.10
2023-05-13T20:35:00.177Z,4.67
2023-05-13T20:37:29.201Z,3.53
2023-05-13T20:39:56.540Z,5.33
2023-05-13T20:42:24.113Z,8.53
2023-05-13T20:44:52.231Z,5.83
2023-05-13T20:47:20.732Z,4.23
2023-05-13T20:49:48.788Z,4.70
2023-05-13T20:52:16.620Z,5.50
2023-05-13T20:54:44.559Z,5.27
2023-05-13T20:57:11.916Z,8.77
2023-05-13T20:59:39.262Z,4.03
2023-05-13T21:02:06.865Z,6.20
2023-05-13T21:04:34.714Z,4.33
2023-05-13T21:07:03.919Z,5.50
2023-05-13T21:09:31.235Z,3.87
2023-05-13T21:11:58.594Z,4.43
2023-05-13T21:14:25.923Z,4.27
2023-05-13T21:16:54.380Z,5.30
2023-05-13T21:19:22.782Z,5.90
2023-05-13T21:21:50.365Z,4.70
2023-05-13T21:24:19.772Z,4.87
2023-05-13T21:26:48.836Z,6.67
2023-05-13T21:29:18.442Z,5.10
2023-05-13T21:31:47.205Z,6.57
2023-05-13T21:34:14.957Z,7.53
2023-05-13T21:36:42.879Z,10.73
2023-05-13T21:39:11.066Z,9.53
2023-05-13T21:41:38.307Z,10.33
2023-05-13T21:44:05.789Z,10.40
2023-05-13T21:46:33.087Z,7.20
2023-05-13T21:49:00.535Z,10.43
2023-05-13T21:51:28.414Z,8.27
2023-05-13T21:53:55.584Z,8.40
2023-05-13T21:56:22.758Z,11.57
2023-05-13T21:58:50.507Z,11.00
2023-05-13T22:01:17.972Z,9.87
2023-05-13T22:03:45.186Z,5.53
2023-05-13T22:06:12.351Z,6.60
2023-05-13T22:08:39.515Z,6.20
2023-05-13T22:11:07.352Z,9.77
2023-05-13T22:13:34.638Z,4.73
2023-05-13T22:16:01.894Z,5.03
2023-05-13T22:18:29.323Z,5.67
2023-05-13T22:20:58.559Z,7.80
2023-05-13T22:23:25.873Z,6.33
2023-05-13T22:25:53.400Z,7.83
2023-05-13T22:28:20.620Z,6.07
2023-05-13T22:30:51.482Z,6.17
2023-05-13T22:33:19.424Z,7.10
2023-05-13T22:35:47.114Z,10.60
2023-05-13T22:38:14.421Z,15.20
2023-05-13T22:40:41.857Z,10.90
2023-05-13T22:43:09.048Z,8.47
2023-05-13T22:45:36.952Z,9.97
2023-05-13T22:48:04.260Z,11.13
2023-05-13T22:50:31.805Z,6.00
2023-05-13T22:52:59.601Z,6.80
2023-05-13T22:55:26.775Z,6.37
2023-05-13T22:57:54.120Z,6.07
2023-05-13T23:00:21.503Z,5.33
2023-05-13T23:02:48.826Z,5.17
2023-05-13T23:05:16.092Z,5.97
2023-05-13T23:07:43.262Z,7.90
2023-05-13T23:10:10.715Z,10.20
2023-05-13T23:12:38.938Z,8.00
2023-05-13T23:15:07.035Z,8.73
2023-05-13T23:17:34.348Z,9.90
2023-05-13T23:20:01.617Z,10.17
2023-05-13T23:22:28.971Z,12.63
2023-05-13T23:24:56.165Z,12.60
2023-05-13T23:27:23.365Z,13.17
2023-05-13T23:29:50.689Z,16.37
2023-05-13T23:32:19.089Z,15.13
2023-05-13T23:34:46.299Z,9.30
2023-05-13T23:37:15.578Z,8.90
2023-05-13T23:39:42.821Z,11.30
2023-05-13T23:42:10.559Z,13.03
2023-05-13T23:44:38.527Z,16.23
2023-05-13T23:47:05.733Z,10.73
2023-05-13T23:49:32.896Z,7.67
2023-05-13T23:52:00.071Z,7.93
2023-05-13T23:54:27.255Z,9.50
2023-05-13T23:56:54.429Z,7.77
2023-05-13T23:59:21.567Z,11.43
